createdAt,value
2022-10-19T00:00:12.948Z,4.13
2022-10-19T00:05:37.837Z,3.65
2022-10-19T00:11:02.925Z,4.07
2022-10-19T00:16:31.287Z,3.92
2022-10-19T00:21:55.882Z,4.55
2022-10-19T00:27:21.112Z,4.18
2022-10-19T00:32:48.290Z,4.55
2022-10-19T00:38:13.166Z,5.03
2022-10-19T00:43:53.325Z,4.70
2022-10-19T00:49:23.622Z,4.43
2022-10-19T00:54:50.834Z,4.28
2022-10-19T01:00:19.461Z,4.68
2022-10-19T01:05:44.841Z,4.03
2022-10-19T01:11:24.977Z,4.70
2022-10-19T01:16:58.582Z,4.85
2022-10-19T01:22:36.218Z,5.95
2022-10-19T01:28:17.761Z,5.80
2022-10-19T01:33:53.093Z,5.20
2022-10-19T01:39:36.881Z,5.57
2022-10-19T01:45:07.100Z,5.38
2022-10-19T01:50:39.535Z,4.90
2022-10-19T01:56:08.058Z,5.28
2022-10-19T02:01:36.679Z,6.25
2022-10-19T02:12:30.080Z,6.03
2022-10-19T02:17:59.807Z,5.97
2022-10-19T02:23:28.825Z,5.68
2022-10-19T02:28:55.874Z,5.50
2022-10-19T02:34:21.919Z,5.35
2022-10-19T02:39:48.159Z,4.32
2022-10-19T02:45:18.541Z,5.05
2022-10-19T02:50:45.366Z,5.40
2022-10-19T02:56:11.786Z,5.60
2022-10-19T03:01:37.066Z,4.85
2022-10-19T03:07:02.077Z,4.43
2022-10-19T03:12:27.786Z,5.47
2022-10-19T03:17:53.981Z,5.20
2022-10-19T03:23:19.684Z,5.00
2022-10-19T03:28:45.279Z,5.80
2022-10-19T03:34:09.550Z,5.50
2022-10-19T03:39:33.697Z,5.57
2022-10-19T03:44:59.313Z,6.35
2022-10-19T03:50:24.902Z,5.28
2022-10-19T03:55:49.852Z,7.25
2022-10-19T04:01:16.906Z,5.78
2022-10-19T04:06:44.014Z,6.90
2022-10-19T04:12:08.290Z,5.43
2022-10-19T04:17:34.038Z,5.60
2022-10-19T04:22:58.505Z,6.20
2022-10-19T04:28:23.748Z,5.82
2022-10-19T04:33:49.873Z,5.50
2022-10-19T04:39:15.534Z,5.57
2022-10-19T04:44:44.183Z,7.27
2022-10-19T04:50:14.401Z,6.20
2022-10-19T04:55:41.984Z,5.75
2022-10-19T05:01:11.184Z,4.97
2022-10-19T05:06:37.651Z,4.32
2022-10-19T05:12:02.207Z,4.88
2022-10-19T05:17:31.064Z,3.78
2022-10-19T05:22:57.399Z,4.93
2022-10-19T05:28:22.103Z,4.75
2022-10-19T05:33:46.862Z,5.10
2022-10-19T05:39:15.521Z,5.57
2022-10-19T05:44:40.112Z,4.30
2022-10-19T05:50:05.506Z,5.43
2022-10-19T05:55:36.661Z,4.55
2022-10-19T06:01:01.381Z,5.43
2022-10-19T06:06:26.393Z,4.85
2022-10-19T06:11:51.615Z,4.82
2022-10-19T06:17:16.298Z,4.68
2022-10-19T06:22:40.073Z,8.35
2022-10-19T06:28:05.811Z,6.78
2022-10-19T06:33:30.041Z,7.57
2022-10-19T06:38:54.731Z,3.28
2022-10-19T06:44:21.393Z,3.20
2022-10-19T06:49:46.570Z,3.38
2022-10-19T06:55:17.126Z,3.40
2022-10-19T07:00:44.097Z,2.75
2022-10-19T07:06:10.831Z,2.88
2022-10-19T07:11:35.317Z,4.93
2022-10-19T07:17:01.842Z,3.83
2022-10-19T07:22:28.247Z,3.08
2022-10-19T07:27:52.917Z,3.40
2022-10-19T07:33:20.542Z,3.05
2022-10-19T07:38:44.957Z,3.40
2022-10-19T07:44:12.166Z,3.92
2022-10-19T07:49:41.646Z,3.88
2022-10-19T07:55:07.837Z,3.72
2022-10-19T08:00:32.292Z,3.85
2022-10-19T08:06:02.568Z,3.40
2022-10-19T08:11:30.081Z,3.65
2022-10-19T08:16:54.930Z,2.67
2022-10-19T08:22:20.730Z,2.30
2022-10-19T08:27:47.129Z,2.30
2022-10-19T08:33:12.694Z,6.00
2022-10-19T08:38:39.602Z,1.80
2022-10-19T08:44:25.846Z,1.65
2022-10-19T08:49:50.330Z,1.83
2022-10-19T08:55:23.221Z,2.30
2022-10-19T09:00:56.290Z,2.30
2022-10-19T09:06:27.591Z,1.92
2022-10-19T09:11:59.738Z,2.15
2022-10-19T09:17:26.279Z,1.45
2022-10-19T09:22:59.843Z,1.85
2022-10-19T09:28:42.396Z,2.25
2022-10-19T09:34:14.503Z,2.60
2022-10-19T09:39:41.032Z,1.98
2022-10-19T09:45:19.807Z,2.40
2022-10-19T09:50:45.720Z,2.17
2022-10-19T09:56:19.663Z,2.10
2022-10-19T10:01:45.761Z,2.75
2022-10-19T10:07:17.302Z,2.88
2022-10-19T10:12:44.234Z,2.92
2022-10-19T10:18:15.394Z,2.88
2022-10-19T10:23:40.208Z,2.72
2022-10-19T10:29:19.379Z,3.20
2022-10-19T10:34:54.874Z,4.27
2022-10-19T10:40:25.460Z,3.60
2022-10-19T10:45:54.735Z,4.05
2022-10-19T10:51:24.904Z,3.47
2022-10-19T10:57:06.720Z,3.30
2022-10-19T11:02:41.234Z,3.28
2022-10-19T11:08:15.696Z,3.40
2022-10-19T11:13:46.002Z,2.88
2022-10-19T11:19:17.816Z,3.28
2022-10-19T11:24:57.173Z,3.70
2022-10-19T11:30:23.383Z,4.28
2022-10-19T11:35:53.135Z,4.63
2022-10-19T11:41:28.385Z,5.05
2022-10-19T11:47:08.095Z,4.55
2022-10-19T11:52:46.257Z,4.65
2022-10-19T11:58:34.829Z,5.53
2022-10-19T12:04:36.456Z,4.70
2022-10-19T12:10:10.141Z,4.97
2022-10-19T12:15:40.758Z,5.10
2022-10-19T12:21:11.103Z,4.18
2022-10-19T12:26:37.593Z,5.38
2022-10-19T12:32:05.893Z,7.95
2022-10-19T12:37:36.185Z,5.93
2022-10-19T12:43:06.200Z,7.43
2022-10-19T12:48:32.948Z,6.13
2022-10-19T12:54:09.622Z,5.95
2022-10-19T12:59:36.910Z,8.13
2022-10-19T13:05:03.037Z,6.43
2022-10-19T13:10:29.509Z,6.00
2022-10-19T13:15:55.165Z,5.57
2022-10-19T13:22:01.127Z,4.15
2022-10-19T13:27:38.869Z,4.68
2022-10-19T13:33:42.761Z,4.68
2022-10-19T13:39:17.214Z,4.65
2022-10-19T13:44:47.290Z,5.03
2022-10-19T13:55:56.690Z,4.10
2022-10-19T14:01:40.310Z,4.50
2022-10-19T14:07:11.623Z,7.15
2022-10-19T14:12:41.503Z,7.75
2022-10-19T14:18:24.873Z,8.88
2022-10-19T14:23:51.818Z,8.88
2022-10-19T14:29:16.312Z,9.98
2022-10-19T14:34:43.202Z,9.32
2022-10-19T14:40:26.630Z,9.63
2022-10-19T14:46:14.916Z,8.82
2022-10-19T14:51:44.775Z,9.55
2022-10-19T14:57:15.568Z,10.32
2022-10-19T15:02:44.381Z,10.25
2022-10-19T15:08:13.137Z,11.95
2022-10-19T15:13:43.079Z,11.32
2022-10-19T15:19:16.752Z,12.50
2022-10-19T15:24:57.046Z,12.57
2022-10-19T15:30:30.264Z,12.77
2022-10-19T15:36:07.360Z,11.85
2022-10-19T15:41:34.771Z,13.05
2022-10-19T15:47:23.209Z,11.50
2022-10-19T15:52:47.785Z,12.27
2022-10-19T15:58:15.229Z,11.68
2022-10-19T16:03:40.621Z,11.93
2022-10-19T16:09:05.809Z,13.55
2022-10-19T16:14:34.360Z,12.65
2022-10-19T16:20:04.171Z,11.75
2022-10-19T16:25:28.847Z,11.10
2022-10-19T16:30:57.153Z,10.48
2022-10-19T16:36:25.628Z,10.50
2022-10-19T16:41:50.368Z,9.55
2022-10-19T16:47:17.055Z,10.35
2022-10-19T16:52:42.249Z,10.02
2022-10-19T16:58:06.950Z,8.85
2022-10-19T17:03:33.282Z,9.82
2022-10-19T17:14:44.004Z,8.48
2022-10-19T17:20:11.730Z,7.75
2022-10-19T17:25:37.206Z,7.97
2022-10-19T17:31:06.601Z,7.88
2022-10-19T17:36:34.578Z,8.60
2022-10-19T17:42:02.118Z,8.10
2022-10-19T17:47:27.114Z,8.60
2022-10-19T17:52:53.982Z,7.80
2022-10-19T17:58:20.580Z,8.32
2022-10-19T18:03:46.555Z,8.00
2022-10-19T18:09:13.739Z,7.90
2022-10-19T18:14:38.743Z,8.00
2022-10-19T18:20:05.548Z,9.95
2022-10-19T18:25:52.848Z,8.60
2022-10-19T18:31:20.584Z,8.50
2022-10-19T18:36:45.419Z,8.65
2022-10-19T18:42:13.187Z,8.45
2022-10-19T18:47:37.853Z,7.97
2022-10-19T18:53:03.675Z,8.13
2022-10-19T18:58:30.976Z,9.75
2022-10-19T19:03:57.242Z,9.63
2022-10-19T19:09:22.200Z,11.00
2022-10-19T19:14:48.646Z,10.27
2022-10-19T19:20:15.338Z,10.43
2022-10-19T19:25:41.107Z,9.77
2022-10-19T19:31:08.281Z,9.27
2022-10-19T19:36:32.311Z,10.57
2022-10-19T19:41:57.029Z,9.25
2022-10-19T19:47:22.849Z,9.63
2022-10-19T19:52:49.198Z,9.13
2022-10-19T19:58:13.177Z,8.88
2022-10-19T20:03:38.897Z,9.25
2022-10-19T20:09:02.991Z,10.35
2022-10-19T20:14:26.987Z,8.85
2022-10-19T20:19:55.932Z,8.93
2022-10-19T20:25:20.436Z,9.82
2022-10-19T20:30:44.999Z,9.32
2022-10-19T20:36:12.127Z,10.15
2022-10-19T20:41:36.774Z,10.68
2022-10-19T20:47:01.217Z,11.00
2022-10-19T20:52:28.436Z,11.60
2022-10-19T20:57:52.902Z,11.43
2022-10-19T21:03:17.664Z,11.43
2022-10-19T21:08:44.055Z,12.30
2022-10-19T21:14:11.675Z,12.73
2022-10-19T21:19:36.429Z,12.35
2022-10-19T21:25:02.872Z,13.13
2022-10-19T21:30:28.404Z,13.23
2022-10-19T21:35:54.266Z,13.82
2022-10-19T21:41:25.419Z,11.98
2022-10-19T21:46:51.393Z,14.55
2022-10-19T21:52:16.282Z,15.07
2022-10-19T21:57:42.085Z,15.98
2022-10-19T22:03:08.324Z,15.20
2022-10-19T22:08:33.475Z,16.80
2022-10-19T22:14:03.876Z,14.52
2022-10-19T22:19:29.272Z,14.45
2022-10-19T22:24:52.858Z,13.52
2022-10-19T22:30:18.237Z,12.75
2022-10-19T22:35:44.049Z,12.85
2022-10-19T22:41:08.664Z,11.40
2022-10-19T22:46:34.729Z,12.98
2022-10-19T22:52:01.092Z,13.68
2022-10-19T22:57:25.509Z,13.85
2022-10-19T23:02:52.124Z,15.55
2022-10-19T23:08:16.853Z,13.02
2022-10-19T23:13:41.855Z,14.18
2022-10-19T23:19:07.741Z,13.90
2022-10-19T23:24:32.588Z,13.45
2022-10-19T23:29:59.321Z,16.00
2022-10-19T23:35:25.582Z,22.17
2022-10-19T23:40:50.246Z,23.45
2022-10-19T23:46:14.917Z,25.67
2022-10-19T23:51:41.032Z,24.48
2022-10-19T23:57:05.635Z,23.52
